Eems Servant — PBTI — position and weather

sailwx.info

Track history (hours):
 
Tides and Currents Weather Stations Pressure Air Temp Water Temp Dewpoint Dewpoint Depression Visibility Wind Speed Wind Dir Waves Ship Positions

Eems Servant

Last reported at 2016-Aug-24 04:27 UTC. Time now 2016-Aug-29 14:48 UTC.
Position N 49°09' W 005°09'.

Length 87 m; draft 3.9 m.

Type: Cargo ship. MMSI: 246236000.

Date/timePositionNaut miles runAvg speedWind from/ knotsBaromVisibWave heightAir tempDewpointWater temp
2016-Aug-24 04:27N 49°09' W 005°09'1010.3
2016-Aug-24 03:28N 49°14' W 004°55'1110.9
2016-Aug-24 02:25N 49°20' W 004°40'1210.3
2016-Aug-24 01:15N 49°25' W 004°23'910.1
2016-Aug-24 00:25N 49°29' W 004°12'28 8.6
2016-Aug-23 21:09N 49°42' W 003°34'13 8.3
2016-Aug-23 19:32N 49°49' W 003°16'1010.0
2016-Aug-23 18:30N 49°54' W 003°02'1111.4
2016-Aug-23 17:33N 49°59' W 002°47'80 8.9
2016-Aug-23 08:32N 50°24' W 000°48'1411.0
2016-Aug-23 07:16N 50°27' W 000°27'811.4
2016-Aug-23 06:32N 50°29' W 000°14'1211.2
2016-Aug-23 05:30N 50°33' E 000°03'1010.8
2016-Aug-23 04:33N 50°36' E 000°19'30 8.9
2016-Aug-23 01:12N 50°50' E 001°00'6 8.4
2016-Aug-23 00:30N 50°54' E 001°08'9 9.5
2016-Aug-22 23:32N 50°60' E 001°19'1211.9
2016-Aug-22 22:33N 51°07' E 001°33'1211.6
2016-Aug-22 21:33N 51°18' E 001°36'1111.0
2016-Aug-22 20:33N 51°27' E 001°26'1111.2
2016-Aug-22 19:33N 51°29' E 001°08'1411.6
2016-Aug-22 18:20N 51°29' E 000°45'1012.7
2016-Aug-22 17:33N 51°30' E 000°30'9 8.7
2016-Aug-22 16:34N 51°28' E 000°16'4 4.1
2016-Aug-22 15:33N 51°30' E 000°10'0 0.0
2016-Aug-22 14:25N 51°30' E 000°10'0 0.0
2016-Aug-22 13:28N 51°30' E 000°10'0 0.0
2016-Aug-22 12:31N 51°30' E 000°10'0 0.0
2016-Aug-22 11:31N 51°30' E 000°10'0 0.0
2016-Aug-22 10:31N 51°30' E 000°10'0 0.0
2016-Aug-22 09:31N 51°30' E 000°10'0 0.0
2016-Aug-22 08:31N 51°30' E 000°10'0 0.0
2016-Aug-22 07:31N 51°30' E 000°10'0 0.0
2016-Aug-22 06:31N 51°30' E 000°10'0 0.0
2016-Aug-22 05:28N 51°30' E 000°10'0 0.0
2016-Aug-22 04:31N 51°30' E 000°10'0 0.0
2016-Aug-22 03:31N 51°30' E 000°10'0 0.0
2016-Aug-22 02:31N 51°30' E 000°10'0 0.0
2016-Aug-22 01:31N 51°30' E 000°10'0 0.0
2016-Aug-22 00:31N 51°30' E 000°10'0 0.0
2016-Aug-21 23:31N 51°30' E 000°10'0 0.0
2016-Aug-21 22:31N 51°30' E 000°10'0 0.0
2016-Aug-21 21:31N 51°30' E 000°10'0 0.0
2016-Aug-21 20:28N 51°30' E 000°10'0 0.0
2016-Aug-21 19:28N 51°30' E 000°10'0 0.0
2016-Aug-21 18:31N 51°30' E 000°10'0 0.0
2016-Aug-21 17:31N 51°30' E 000°10'0 0.0
2016-Aug-21 16:16N 51°30' E 000°10'0 0.0
2016-Aug-21 15:31N 51°30' E 000°10'0 0.0
2016-Aug-21 14:28N 51°30' E 000°10'0 0.0
2016-Aug-21 13:31N 51°30' E 000°10'0 0.0
2016-Aug-21 12:31N 51°30' E 000°10'0 0.0
2016-Aug-21 11:31N 51°30' E 000°10'0 0.0
2016-Aug-21 10:31N 51°30' E 000°10'0 0.0
2016-Aug-21 09:31N 51°30' E 000°10'0 0.0
2016-Aug-21 08:31N 51°30' E 000°10'0 0.0
2016-Aug-21 07:31N 51°30' E 000°10'0 0.0
2016-Aug-21 06:31N 51°30' E 000°10'0 0.0
2016-Aug-21 05:31N 51°30' E 000°10'0 0.0
2016-Aug-21 04:31N 51°30' E 000°10'0 0.0
2016-Aug-21 03:28N 51°30' E 000°10'0 0.0
2016-Aug-21 02:31N 51°30' E 000°10'0 0.0
2016-Aug-21 01:31N 51°30' E 000°10'0 0.0
2016-Aug-21 00:31N 51°30' E 000°10'0 0.0
2016-Aug-20 23:25N 51°30' E 000°10'0 0.0
2016-Aug-20 22:28N 51°30' E 000°10'0 0.0
2016-Aug-20 21:33N 51°30' E 000°10'0 0.0
2016-Aug-20 20:33N 51°30' E 000°10'0 0.0
2016-Aug-20 19:33N 51°30' E 000°10'0 0.0
2016-Aug-20 18:33N 51°30' E 000°10'0 0.0
2016-Aug-20 17:33N 51°30' E 000°10'0 0.0
2016-Aug-20 16:33N 51°30' E 000°10'0 0.0
2016-Aug-20 15:33N 51°30' E 000°10'5 5.4
2016-Aug-20 14:33N 51°28' E 000°19'6 5.9
2016-Aug-20 13:33N 51°29' E 000°28'10 9.9
2016-Aug-20 12:33N 51°30' E 000°44'9 0.3
2016-Aug-19 07:23N 51°30' E 000°59'7 8.4
2016-Aug-19 06:31N 51°35' E 001°09'9 9.1
2016-Aug-19 05:33N 51°41' E 001°19'9 8.7
2016-Aug-19 04:34N 51°47' E 001°29'7 7.4
2016-Aug-19 03:34N 51°50' E 001°40'8 8.3
2016-Aug-19 02:33N 51°50' E 001°53'8 8.0
2016-Aug-19 01:32N 51°54' E 002°05'29 9.0
2016-Aug-18 22:18N 52°01' E 002°50'7 9.9
2016-Aug-18 21:33N 52°01' E 003°02'1010.1
2016-Aug-18 20:33N 52°02' E 003°19'1010.2
2016-Aug-18 19:33N 52°02' E 003°35'1010.3
2016-Aug-18 18:33N 52°02' E 003°52'1110.7
2016-Aug-18 17:34N 51°58' E 004°08'10 9.9
2016-Aug-18 16:33N 51°54' E 004°23'7 6.7
2016-Aug-18 15:33N 51°54' E 004°34'7 6.9
2016-Aug-18 14:33N 51°49' E 004°41'1 0.6
2016-Aug-18 13:33N 51°49' E 004°42'0 0.0
2016-Aug-18 12:31N 51°49' E 004°42'0 0.0
2016-Aug-18 11:32N 51°49' E 004°42'0 0.0
2016-Aug-18 10:33N 51°49' E 004°42'0 0.0
2016-Aug-18 09:33N 51°49' E 004°42'0 0.0
2016-Aug-18 08:33N 51°49' E 004°42'0 0.0
2016-Aug-18 07:34N 51°49' E 004°42'0 0.0
2016-Aug-18 06:33N 51°49' E 004°42'0 0.0
2016-Aug-18 05:32N 51°49' E 004°42'0 0.0
2016-Aug-18 04:32N 51°49' E 004°42'0 0.0
2016-Aug-18 03:33N 51°49' E 004°42'0 0.0
2016-Aug-18 02:33N 51°49' E 004°42'0 0.0
2016-Aug-18 01:34N 51°49' E 004°42'0 0.0
2016-Aug-18 00:33N 51°49' E 004°42'0 0.0
2016-Aug-17 23:32N 51°49' E 004°42'0 0.0
2016-Aug-17 22:33N 51°49' E 004°42'0 0.0
2016-Aug-17 21:33N 51°49' E 004°42'0 0.0
2016-Aug-17 20:31N 51°49' E 004°42'0 0.0
2016-Aug-17 19:33N 51°49' E 004°42'0 0.0
2016-Aug-17 18:33N 51°49' E 004°42'0 0.0
2016-Aug-17 17:33N 51°49' E 004°42'0 0.0
2016-Aug-17 16:33N 51°49' E 004°42'0 0.0
2016-Aug-17 15:33N 51°49' E 004°42'0 0.0
2016-Aug-17 14:33N 51°49' E 004°42'0 0.1
2016-Aug-17 13:33N 51°49' E 004°42'0 0.0
2016-Aug-17 12:34N 51°49' E 004°42'0 0.0
2016-Aug-17 11:33N 51°49' E 004°42'0 0.0
2016-Aug-17 10:33N 51°49' E 004°42'0 0.0
2016-Aug-17 09:33N 51°49' E 004°42'0 0.0
2016-Aug-17 08:33N 51°49' E 004°42'0 0.0
2016-Aug-17 07:31N 51°49' E 004°42'0 0.0
2016-Aug-17 06:34N 51°49' E 004°42'0 0.0
2016-Aug-17 05:34N 51°49' E 004°42'0 0.0
2016-Aug-17 04:33N 51°49' E 004°42'0 0.0
2016-Aug-17 03:33N 51°49' E 004°42'0 0.0
2016-Aug-17 02:33N 51°49' E 004°42'0 0.0
2016-Aug-17 01:34N 51°49' E 004°42'0 0.0
2016-Aug-17 00:34N 51°49' E 004°42'0 0.0
2016-Aug-16 23:33N 51°49' E 004°42'0 0.0
2016-Aug-16 22:33N 51°49' E 004°42'0 0.0
2016-Aug-16 21:33N 51°49' E 004°42'0 0.0
2016-Aug-16 20:33N 51°49' E 004°42'0 0.0
2016-Aug-16 19:33N 51°49' E 004°42'0 0.0
2016-Aug-16 18:33N 51°49' E 004°42'0 0.0
2016-Aug-16 17:34N 51°49' E 004°42'0 0.0
2016-Aug-16 16:32N 51°49' E 004°42'0 0.0
2016-Aug-16 15:34N 51°49' E 004°42'0 0.0
2016-Aug-16 14:33N 51°49' E 004°42'0 0.1
2016-Aug-16 13:33N 51°49' E 004°42'0 0.0
2016-Aug-16 12:33N 51°49' E 004°42'0 0.0
2016-Aug-16 11:33N 51°49' E 004°42'0 0.0
2016-Aug-16 10:33N 51°49' E 004°42'0 0.0
2016-Aug-16 09:33N 51°49' E 004°42'0 0.1
2016-Aug-16 08:34N 51°49' E 004°42'0 0.0
2016-Aug-16 07:33N 51°49' E 004°42'0 0.0
2016-Aug-16 06:33N 51°49' E 004°42'0 0.0
2016-Aug-16 04:33N 51°49' E 004°42'0 0.0
2016-Aug-16 03:32N 51°49' E 004°42'0 0.0
2016-Aug-16 02:33N 51°49' E 004°42'0 0.0
2016-Aug-16 01:30N 51°49' E 004°42'0 0.0
2016-Aug-16 00:33N 51°49' E 004°42'0 0.0
2016-Aug-15 23:33N 51°49' E 004°42'0 0.0
2016-Aug-15 22:33N 51°49' E 004°42'0 0.0
2016-Aug-15 21:31N 51°49' E 004°42'0 0.0
2016-Aug-15 20:33N 51°49' E 004°42'0 0.0
2016-Aug-15 19:33N 51°49' E 004°42'0 0.0
2016-Aug-15 18:33N 51°49' E 004°42'0 0.0
2016-Aug-15 17:33N 51°49' E 004°42'0 0.0
2016-Aug-15 16:33N 51°49' E 004°42'0 0.0
2016-Aug-15 15:34N 51°49' E 004°42'0 0.0
2016-Aug-15 14:33N 51°49' E 004°42'0 0.0
2016-Aug-15 13:34N 51°49' E 004°42'0 0.0
2016-Aug-15 12:33N 51°49' E 004°42'0 0.0
2016-Aug-15 11:34N 51°49' E 004°42'0 0.0
2016-Aug-15 10:34N 51°49' E 004°42'0 0.0
2016-Aug-15 09:33N 51°49' E 004°42'0 0.0
2016-Aug-15 08:33N 51°49' E 004°42'0 0.0
2016-Aug-15 07:33N 51°49' E 004°42'0 0.0
2016-Aug-15 06:34N 51°49' E 004°42'0 0.0
2016-Aug-15 04:34N 51°49' E 004°42'0 0.0
2016-Aug-15 03:33N 51°49' E 004°42'0 0.0
2016-Aug-15 02:33N 51°49' E 004°42'0 0.0
2016-Aug-15 01:33N 51°49' E 004°42'0 0.0
2016-Aug-15 00:34N 51°49' E 004°42'0 0.0
2016-Aug-14 23:33N 51°49' E 004°42'0 0.0
2016-Aug-14 22:33N 51°49' E 004°42'0 0.0
2016-Aug-14 21:33N 51°49' E 004°42'0 0.0
2016-Aug-14 20:33N 51°49' E 004°42'0 0.0
2016-Aug-14 19:33N 51°49' E 004°42'0 0.0
2016-Aug-14 18:33N 51°49' E 004°42'0 0.0
2016-Aug-14 17:33N 51°49' E 004°42'0 0.0
2016-Aug-14 16:33N 51°49' E 004°42'0 0.0
2016-Aug-14 15:34N 51°49' E 004°42'0 0.0
2016-Aug-14 14:33N 51°49' E 004°42'0 0.0
2016-Aug-14 13:33N 51°49' E 004°42'0 0.0
2016-Aug-14 12:33N 51°49' E 004°42'0 0.0
2016-Aug-14 11:33N 51°49' E 004°42'0 0.0
2016-Aug-14 10:33N 51°49' E 004°42'0 0.0
2016-Aug-14 09:33N 51°49' E 004°42'0 0.0
2016-Aug-14 08:33N 51°49' E 004°42'0 0.0
2016-Aug-14 07:33N 51°49' E 004°42'0 0.0
2016-Aug-14 06:32N 51°49' E 004°42'0 0.0
2016-Aug-14 04:31N 51°49' E 004°42'  
Track history (hours):
 
Tides and Currents Weather Stations Pressure Air Temp Water Temp Dewpoint Dewpoint Depression Visibility Wind Speed Wind Dir Waves Ship Positions

Eems Servant

Last reported at 2016-Aug-24 04:27 UTC. Time now 2016-Aug-29 14:48 UTC.
Position N 49°09' W 005°09'.

Length 87 m; draft 3.9 m.

Type: Cargo ship. MMSI: 246236000.

Date/timePositionNaut miles runAvg speedWind from/ knotsBaromVisibWave heightAir tempDewpointWater temp
2016-Aug-24 04:27N 49°09' W 005°09'1010.3
2016-Aug-24 03:28N 49°14' W 004°55'1110.9
2016-Aug-24 02:25N 49°20' W 004°40'1210.3
2016-Aug-24 01:15N 49°25' W 004°23'910.1
2016-Aug-24 00:25N 49°29' W 004°12'28 8.6
2016-Aug-23 21:09N 49°42' W 003°34'13 8.3
2016-Aug-23 19:32N 49°49' W 003°16'1010.0
2016-Aug-23 18:30N 49°54' W 003°02'1111.4
2016-Aug-23 17:33N 49°59' W 002°47'80 8.9
2016-Aug-23 08:32N 50°24' W 000°48'1411.0
2016-Aug-23 07:16N 50°27' W 000°27'811.4
2016-Aug-23 06:32N 50°29' W 000°14'1211.2
2016-Aug-23 05:30N 50°33' E 000°03'1010.8
2016-Aug-23 04:33N 50°36' E 000°19'30 8.9
2016-Aug-23 01:12N 50°50' E 001°00'6 8.4
2016-Aug-23 00:30N 50°54' E 001°08'9 9.5
2016-Aug-22 23:32N 50°60' E 001°19'1211.9
2016-Aug-22 22:33N 51°07' E 001°33'1211.6
2016-Aug-22 21:33N 51°18' E 001°36'1111.0
2016-Aug-22 20:33N 51°27' E 001°26'1111.2
2016-Aug-22 19:33N 51°29' E 001°08'1411.6
2016-Aug-22 18:20N 51°29' E 000°45'1012.7
2016-Aug-22 17:33N 51°30' E 000°30'9 8.7
2016-Aug-22 16:34N 51°28' E 000°16'4 4.1
2016-Aug-22 15:33N 51°30' E 000°10'0 0.0
2016-Aug-22 14:25N 51°30' E 000°10'0 0.0
2016-Aug-22 13:28N 51°30' E 000°10'0 0.0
2016-Aug-22 12:31N 51°30' E 000°10'0 0.0
2016-Aug-22 11:31N 51°30' E 000°10'0 0.0
2016-Aug-22 10:31N 51°30' E 000°10'0 0.0
2016-Aug-22 09:31N 51°30' E 000°10'0 0.0
2016-Aug-22 08:31N 51°30' E 000°10'0 0.0
2016-Aug-22 07:31N 51°30' E 000°10'0 0.0
2016-Aug-22 06:31N 51°30' E 000°10'0 0.0
2016-Aug-22 05:28N 51°30' E 000°10'0 0.0
2016-Aug-22 04:31N 51°30' E 000°10'0 0.0
2016-Aug-22 03:31N 51°30' E 000°10'0 0.0
2016-Aug-22 02:31N 51°30' E 000°10'0 0.0
2016-Aug-22 01:31N 51°30' E 000°10'0 0.0
2016-Aug-22 00:31N 51°30' E 000°10'0 0.0
2016-Aug-21 23:31N 51°30' E 000°10'0 0.0
2016-Aug-21 22:31N 51°30' E 000°10'0 0.0
2016-Aug-21 21:31N 51°30' E 000°10'0 0.0
2016-Aug-21 20:28N 51°30' E 000°10'0 0.0
2016-Aug-21 19:28N 51°30' E 000°10'0 0.0
2016-Aug-21 18:31N 51°30' E 000°10'0 0.0
2016-Aug-21 17:31N 51°30' E 000°10'0 0.0
2016-Aug-21 16:16N 51°30' E 000°10'0 0.0
2016-Aug-21 15:31N 51°30' E 000°10'0 0.0
2016-Aug-21 14:28N 51°30' E 000°10'0 0.0
2016-Aug-21 13:31N 51°30' E 000°10'0 0.0
2016-Aug-21 12:31N 51°30' E 000°10'0 0.0
2016-Aug-21 11:31N 51°30' E 000°10'0 0.0
2016-Aug-21 10:31N 51°30' E 000°10'0 0.0
2016-Aug-21 09:31N 51°30' E 000°10'0 0.0
2016-Aug-21 08:31N 51°30' E 000°10'0 0.0
2016-Aug-21 07:31N 51°30' E 000°10'0 0.0
2016-Aug-21 06:31N 51°30' E 000°10'0 0.0
2016-Aug-21 05:31N 51°30' E 000°10'0 0.0
2016-Aug-21 04:31N 51°30' E 000°10'0 0.0
2016-Aug-21 03:28N 51°30' E 000°10'0 0.0
2016-Aug-21 02:31N 51°30' E 000°10'0 0.0
2016-Aug-21 01:31N 51°30' E 000°10'0 0.0
2016-Aug-21 00:31N 51°30' E 000°10'0 0.0
2016-Aug-20 23:25N 51°30' E 000°10'0 0.0
2016-Aug-20 22:28N 51°30' E 000°10'0 0.0
2016-Aug-20 21:33N 51°30' E 000°10'0 0.0
2016-Aug-20 20:33N 51°30' E 000°10'0 0.0
2016-Aug-20 19:33N 51°30' E 000°10'0 0.0
2016-Aug-20 18:33N 51°30' E 000°10'0 0.0
2016-Aug-20 17:33N 51°30' E 000°10'0 0.0
2016-Aug-20 16:33N 51°30' E 000°10'0 0.0
2016-Aug-20 15:33N 51°30' E 000°10'5 5.4
2016-Aug-20 14:33N 51°28' E 000°19'6 5.9
2016-Aug-20 13:33N 51°29' E 000°28'10 9.9
2016-Aug-20 12:33N 51°30' E 000°44'9 0.3
2016-Aug-19 07:23N 51°30' E 000°59'7 8.4
2016-Aug-19 06:31N 51°35' E 001°09'9 9.1
2016-Aug-19 05:33N 51°41' E 001°19'9 8.7
2016-Aug-19 04:34N 51°47' E 001°29'7 7.4
2016-Aug-19 03:34N 51°50' E 001°40'8 8.3
2016-Aug-19 02:33N 51°50' E 001°53'8 8.0
2016-Aug-19 01:32N 51°54' E 002°05'29 9.0
2016-Aug-18 22:18N 52°01' E 002°50'7 9.9
2016-Aug-18 21:33N 52°01' E 003°02'1010.1
2016-Aug-18 20:33N 52°02' E 003°19'1010.2
2016-Aug-18 19:33N 52°02' E 003°35'1010.3
2016-Aug-18 18:33N 52°02' E 003°52'1110.7
2016-Aug-18 17:34N 51°58' E 004°08'10 9.9
2016-Aug-18 16:33N 51°54' E 004°23'7 6.7
2016-Aug-18 15:33N 51°54' E 004°34'7 6.9
2016-Aug-18 14:33N 51°49' E 004°41'1 0.6
2016-Aug-18 13:33N 51°49' E 004°42'0 0.0
2016-Aug-18 12:31N 51°49' E 004°42'0 0.0
2016-Aug-18 11:32N 51°49' E 004°42'0 0.0
2016-Aug-18 10:33N 51°49' E 004°42'0 0.0
2016-Aug-18 09:33N 51°49' E 004°42'0 0.0
2016-Aug-18 08:33N 51°49' E 004°42'0 0.0
2016-Aug-18 07:34N 51°49' E 004°42'0 0.0
2016-Aug-18 06:33N 51°49' E 004°42'0 0.0
2016-Aug-18 05:32N 51°49' E 004°42'0 0.0
2016-Aug-18 04:32N 51°49' E 004°42'0 0.0
2016-Aug-18 03:33N 51°49' E 004°42'0 0.0
2016-Aug-18 02:33N 51°49' E 004°42'0 0.0
2016-Aug-18 01:34N 51°49' E 004°42'0 0.0
2016-Aug-18 00:33N 51°49' E 004°42'0 0.0
2016-Aug-17 23:32N 51°49' E 004°42'0 0.0
2016-Aug-17 22:33N 51°49' E 004°42'0 0.0
2016-Aug-17 21:33N 51°49' E 004°42'0 0.0
2016-Aug-17 20:31N 51°49' E 004°42'0 0.0
2016-Aug-17 19:33N 51°49' E 004°42'0 0.0
2016-Aug-17 18:33N 51°49' E 004°42'0 0.0
2016-Aug-17 17:33N 51°49' E 004°42'0 0.0
2016-Aug-17 16:33N 51°49' E 004°42'0 0.0
2016-Aug-17 15:33N 51°49' E 004°42'0 0.0
2016-Aug-17 14:33N 51°49' E 004°42'0 0.1
2016-Aug-17 13:33N 51°49' E 004°42'0 0.0
2016-Aug-17 12:34N 51°49' E 004°42'0 0.0
2016-Aug-17 11:33N 51°49' E 004°42'0 0.0
2016-Aug-17 10:33N 51°49' E 004°42'0 0.0
2016-Aug-17 09:33N 51°49' E 004°42'0 0.0
2016-Aug-17 08:33N 51°49' E 004°42'0 0.0
2016-Aug-17 07:31N 51°49' E 004°42'0 0.0
2016-Aug-17 06:34N 51°49' E 004°42'0 0.0
2016-Aug-17 05:34N 51°49' E 004°42'0 0.0
2016-Aug-17 04:33N 51°49' E 004°42'0 0.0
2016-Aug-17 03:33N 51°49' E 004°42'0 0.0
2016-Aug-17 02:33N 51°49' E 004°42'0 0.0
2016-Aug-17 01:34N 51°49' E 004°42'0 0.0
2016-Aug-17 00:34N 51°49' E 004°42'0 0.0
2016-Aug-16 23:33N 51°49' E 004°42'0 0.0
2016-Aug-16 22:33N 51°49' E 004°42'0 0.0
2016-Aug-16 21:33N 51°49' E 004°42'0 0.0
2016-Aug-16 20:33N 51°49' E 004°42'0 0.0
2016-Aug-16 19:33N 51°49' E 004°42'0 0.0
2016-Aug-16 18:33N 51°49' E 004°42'0 0.0
2016-Aug-16 17:34N 51°49' E 004°42'0 0.0
2016-Aug-16 16:32N 51°49' E 004°42'0 0.0
2016-Aug-16 15:34N 51°49' E 004°42'0 0.0
2016-Aug-16 14:33N 51°49' E 004°42'0 0.1
2016-Aug-16 13:33N 51°49' E 004°42'0 0.0
2016-Aug-16 12:33N 51°49' E 004°42'0 0.0
2016-Aug-16 11:33N 51°49' E 004°42'0 0.0
2016-Aug-16 10:33N 51°49' E 004°42'0 0.0
2016-Aug-16 09:33N 51°49' E 004°42'0 0.1
2016-Aug-16 08:34N 51°49' E 004°42'0 0.0
2016-Aug-16 07:33N 51°49' E 004°42'0 0.0
2016-Aug-16 06:33N 51°49' E 004°42'0 0.0
2016-Aug-16 04:33N 51°49' E 004°42'0 0.0
2016-Aug-16 03:32N 51°49' E 004°42'0 0.0
2016-Aug-16 02:33N 51°49' E 004°42'0 0.0
2016-Aug-16 01:30N 51°49' E 004°42'0 0.0
2016-Aug-16 00:33N 51°49' E 004°42'0 0.0
2016-Aug-15 23:33N 51°49' E 004°42'0 0.0
2016-Aug-15 22:33N 51°49' E 004°42'0 0.0
2016-Aug-15 21:31N 51°49' E 004°42'0 0.0
2016-Aug-15 20:33N 51°49' E 004°42'0 0.0
2016-Aug-15 19:33N 51°49' E 004°42'0 0.0
2016-Aug-15 18:33N 51°49' E 004°42'0 0.0
2016-Aug-15 17:33N 51°49' E 004°42'0 0.0
2016-Aug-15 16:33N 51°49' E 004°42'0 0.0
2016-Aug-15 15:34N 51°49' E 004°42'0 0.0
2016-Aug-15 14:33N 51°49' E 004°42'0 0.0
2016-Aug-15 13:34N 51°49' E 004°42'0 0.0
2016-Aug-15 12:33N 51°49' E 004°42'0 0.0
2016-Aug-15 11:34N 51°49' E 004°42'0 0.0
2016-Aug-15 10:34N 51°49' E 004°42'0 0.0
2016-Aug-15 09:33N 51°49' E 004°42'0 0.0
2016-Aug-15 08:33N 51°49' E 004°42'0 0.0
2016-Aug-15 07:33N 51°49' E 004°42'0 0.0
2016-Aug-15 06:34N 51°49' E 004°42'0 0.0
2016-Aug-15 04:34N 51°49' E 004°42'0 0.0
2016-Aug-15 03:33N 51°49' E 004°42'0 0.0
2016-Aug-15 02:33N 51°49' E 004°42'0 0.0
2016-Aug-15 01:33N 51°49' E 004°42'0 0.0
2016-Aug-15 00:34N 51°49' E 004°42'0 0.0
2016-Aug-14 23:33N 51°49' E 004°42'0 0.0
2016-Aug-14 22:33N 51°49' E 004°42'0 0.0
2016-Aug-14 21:33N 51°49' E 004°42'0 0.0
2016-Aug-14 20:33N 51°49' E 004°42'0 0.0
2016-Aug-14 19:33N 51°49' E 004°42'0 0.0
2016-Aug-14 18:33N 51°49' E 004°42'0 0.0
2016-Aug-14 17:33N 51°49' E 004°42'0 0.0
2016-Aug-14 16:33N 51°49' E 004°42'0 0.0
2016-Aug-14 15:34N 51°49' E 004°42'0 0.0
2016-Aug-14 14:33N 51°49' E 004°42'0 0.0
2016-Aug-14 13:33N 51°49' E 004°42'0 0.0
2016-Aug-14 12:33N 51°49' E 004°42'0 0.0
2016-Aug-14 11:33N 51°49' E 004°42'0 0.0
2016-Aug-14 10:33N 51°49' E 004°42'0 0.0
2016-Aug-14 09:33N 51°49' E 004°42'0 0.0
2016-Aug-14 08:33N 51°49' E 004°42'0 0.0
2016-Aug-14 07:33N 51°49' E 004°42'0 0.0
2016-Aug-14 06:32N 51°49' E 004°42'0 0.0
2016-Aug-14 04:31N 51°49' E 004°42'  

Dump ship's entire track history